Flight Track Log - Related Links

Times and Time Zones

All times are in EDT time to prevent confusion due to time zone crossing. See the UAL6025 flight status page for this flight to view local times or setup timezone preferences in your user account.

Time Position Orientation Groundspeed Altitude Reporting Facility
EDT Latitude Longitude Course Direction KTS MPH feet Rate Location/Type
Sat 07:40:52 PM 38.9500 -77.5333 288° West 183 211 1,600  Level Potomac TRACON
Sat 07:41:52 PM 38.9333 -77.6167 256° West 257 296 3,800 2,563 Climbing Potomac TRACON
Sat 07:42:35 PM 38.9100 -77.6750 243° Southwest 264 304 6,000 2,647 Climbing Washington Center
Sat 07:43:34 PM 38.8894 -77.7758 255° West 283 326 8,300 2,370 Climbing Washington Center
Sat 07:44:00 PM 38.8131 -78.0356 288° West  Level FlightAware Approximate
Sat 07:44:34 PM 38.8858 -77.8611 267° West 277 319 10,700  Level Washington Center
Sat 07:45:00 PM 38.8409 -78.1636 288° West  Level FlightAware Approximate
Sat 07:45:35 PM 38.8733 -77.9700 262° West 296 341 12,600  Level Washington Center
Sat 07:46:33 PM 38.8647 -78.0844 265° West 308 354 14,200 2,085 Climbing Washington Center
Sat 07:47:33 PM 38.8622 -78.1989 268° West 321 369 16,700 2,100 Climbing Washington Center
Sat 07:48:33 PM 38.8911 -78.3039 289° West 316 364 18,400 1,550 Climbing Washington Center
Sat 07:49:33 PM 38.9094 -78.4167 282° West 321 369 19,800 1,180 Climbing Washington Center
Sat 07:50:35 PM 38.9003 -78.5392 265° West 333 383 20,800 1,041 Climbing Washington Center
Sat 07:51:34 PM 38.8886 -78.6719 264° West 356 410 21,900 1,059 Climbing Washington Center
Sat 07:52:34 PM 38.8811 -78.8022 266° West 374 430 22,900 1,150 Climbing Washington Center
Sat 07:53:34 PM 38.8731 -78.9381 266° West 387 445 24,200 1,289 Climbing Washington Center
Sat 07:54:35 PM 38.8631 -79.0736 265° West 387 445 25,500 1,311 Climbing Washington Center
Sat 07:55:33 PM 38.8528 -79.2064 264° West 387 445 26,800 1,361 Climbing Washington Center
Sat 07:56:34 PM 38.8447 -79.3392 266° West 387 445 28,200 1,475 Climbing Washington Center
Sat 07:57:35 PM 38.8342 -79.4667 264° West 382 440 29,800 908 Climbing Washington Center
Sat 07:58:33 PM 38.8253 -79.6181 266° West 377 434 30,000 100 Climbing Washington Center
Sat 07:59:35 PM 38.8139 -79.7614 264° West 394 453 30,000  Level Washington Center
Sat 08:00:23 PM 38.8039 -79.8814 264° West 414 476 30,000 661 Level Indianapolis Center
Sat 08:01:24 PM 38.7919 -80.0317 264° West 423 487 31,200 1,328 Climbing Indianapolis Center
Sat 08:02:25 PM 38.7800 -80.1756 264° West 413 475 32,700 1,623 Climbing Indianapolis Center
Sat 08:03:26 PM 38.7528 -80.3053 255° West 386 444 34,500 1,623 Climbing Indianapolis Center
Sat 08:04:27 PM 38.7269 -80.4278 255° West 364 419 36,000 738 Climbing Indianapolis Center
Sat 08:05:28 PM 38.7211 -80.5500 267° West 346 398 36,000  Level Indianapolis Center
Sat 08:06:29 PM 38.7106 -80.6831 264° West 365 420 36,000  Level Indianapolis Center
Sat 08:07:30 PM 38.7000 -80.8208 264° West 382 440 36,000  Level Indianapolis Center
Sat 08:08:32 PM 38.6881 -80.9631 264° West 397 457 36,000  Level Indianapolis Center
Sat 08:09:33 PM 38.6761 -81.1061 264° West 399 459 36,000  Level Indianapolis Center
Sat 08:10:34 PM 38.6633 -81.2489 264° West 399 459 36,000  Level Indianapolis Center
Sat 08:11:35 PM 38.6494 -81.4058 264° West 400 460 36,000  Level Indianapolis Center
Sat 08:12:36 PM 38.6367 -81.5511 264° West 405 466 36,000  Level Indianapolis Center
Sat 08:13:37 PM 38.6258 -81.6939 264° West 408 470 36,000  Level Indianapolis Center
Sat 08:14:38 PM 38.6128 -81.8400 264° West 408 470 36,000  Level Indianapolis Center
Sat 08:15:39 PM 38.6000 -81.9839 264° West 408 470 36,000  Level Indianapolis Center
Sat 08:16:40 PM 38.5869 -82.1286 263° West 408 470 36,000  Level Indianapolis Center
Sat 08:17:41 PM 38.5733 -82.2739 263° West 409 471 36,000  Level Indianapolis Center
Sat 08:18:42 PM 38.5589 -82.4186 263° West 410 472 36,000  Level Indianapolis Center
Sat 08:19:43 PM 38.5436 -82.5914 264° West 410 472 36,000  Level Indianapolis Center
Sat 08:20:45 PM 38.5294 -82.7339 263° West 410 472 36,000  Level Indianapolis Center
Sat 08:21:46 PM 38.5147 -82.8769 263° West 410 472 36,000  Level Indianapolis Center
Sat 08:22:47 PM 38.5011 -83.0208 263° West 410 472 36,000  Level Indianapolis Center
Sat 08:23:48 PM 38.4856 -83.1647 262° West 409 471 36,000  Level Indianapolis Center
Sat 08:24:49 PM 38.4722 -83.3064 263° West 409 471 36,000  Level Indianapolis Center
Sat 08:25:50 PM 38.4575 -83.4494 263° West 409 471 36,000  Level Indianapolis Center
Sat 08:26:51 PM 38.4417 -83.5928 262° West 409 471 36,000  Level Indianapolis Center
Sat 08:27:52 PM 38.4275 -83.7342 263° West 408 470 36,000  Level Indianapolis Center
Sat 08:28:53 PM 38.4119 -83.8778 262° West 408 470 36,000  Level Indianapolis Center
Sat 08:29:54 PM 38.3933 -84.0469 262° West 409 471 36,000  Level Indianapolis Center
Sat 08:30:55 PM 38.3786 -84.1897 263° West 409 471 36,000  Level Indianapolis Center
Sat 08:31:56 PM 38.3611 -84.3356 261° West 410 472 36,000  Level Indianapolis Center
Sat 08:32:57 PM 38.3453 -84.4806 262° West 412 474 36,000  Level Indianapolis Center
Sat 08:33:57 PM 38.3289 -84.6264 262° West 413 475 36,000  Level Indianapolis Center
Sat 08:34:58 PM 38.3128 -84.7717 262° West 413 475 36,000  Level Indianapolis Center
Sat 08:35:59 PM 38.2964 -84.9178 262° West 414 476 36,000  Level Indianapolis Center
Sat 08:37:01 PM 38.2797 -85.0636 262° West 414 476 36,000  Level Indianapolis Center
Sat 08:38:01 PM 38.2600 -85.2228 261° West 414 476 36,000  Level Indianapolis Center
Sat 08:39:02 PM 38.2422 -85.3700 261° West 415 478 36,000  Level Indianapolis Center
Sat 08:40:03 PM 38.2247 -85.5167 261° West 416 479 36,000  Level Indianapolis Center
Sat 08:41:04 PM 38.2075 -85.6619 261° West 416 479 36,000  Level Indianapolis Center
Sat 08:42:05 PM 38.1883 -85.8081 261° West 416 479 36,000  Level Indianapolis Center
Sat 08:43:06 PM 38.1711 -85.9533 261° West 416 479 36,000  Level Indianapolis Center
Sat 08:44:07 PM 38.1525 -86.0992 261° West 416 479 36,000  Level Indianapolis Center
Sat 08:45:07 PM 38.1336 -86.2447 261° West 416 479 36,000  Level Indianapolis Center
Sat 08:46:08 PM 38.1147 -86.3897 261° West 416 479 36,000  Level Indianapolis Center
Sat 08:47:09 PM 38.0961 -86.5353 261° West 415 478 36,000  Level Indianapolis Center
Sat 08:48:10 PM 38.0758 -86.6803 260° West 415 478 36,000  Level Indianapolis Center
Sat 08:49:11 PM 38.0561 -86.8261 260° West 415 478 36,000  Level Indianapolis Center
Sat 08:50:12 PM 38.0369 -86.9733 261° West 416 479 36,000  Level Indianapolis Center
Sat 08:51:13 PM 38.0164 -87.1214 260° West 416 479 36,000  Level Indianapolis Center
Sat 08:52:14 PM 37.9969 -87.2689 261° West 416 479 36,000  Level Indianapolis Center
Sat 08:53:15 PM 37.9769 -87.4150 260° West 416 479 36,000  Level Indianapolis Center
Sat 08:54:16 PM 37.9569 -87.5606 260° West 417 480 36,000  Level Indianapolis Center
Sat 08:55:17 PM 37.9361 -87.7050 260° West 416 479 36,000  Level Indianapolis Center
Sat 08:56:18 PM 37.9197 -87.8506 262° West 417 480 36,000  Level Indianapolis Center
Sat 08:57:19 PM 37.9056 -87.9972 263° West 416 479 36,000  Level Indianapolis Center
Sat 08:58:20 PM 37.8922 -88.1431 263° West 417 480 36,000  Level Indianapolis Center
Sat 08:59:21 PM 37.8778 -88.2881 263° West 416 479 36,000  Level Indianapolis Center
Sat 09:00:22 PM 37.8625 -88.4342 262° West 416 479 36,000  Level Indianapolis Center
Sat 09:00:54 PM 37.8542 -88.5217 263° West 416 479 36,000  Level Kansas City Center
Sat 09:01:55 PM 37.8394 -88.6675 263° West 416 479 36,000  Level Kansas City Center
Sat 09:02:57 PM 37.8267 -88.8236 264° West 417 480 36,000  Level Kansas City Center
Sat 09:03:57 PM 37.8100 -88.9592 261° West 417 480 36,000  Level Kansas City Center
Sat 09:04:59 PM 37.7953 -89.1058 263° West 417 480 36,000  Level Kansas City Center
Sat 09:06:00 PM 37.7811 -89.2494 263° West 417 480 36,000  Level Kansas City Center
Sat 09:07:01 PM 37.7636 -89.4069 262° West 418 481 36,000  Level Kansas City Center
Sat 09:08:02 PM 37.7486 -89.5517 263° West 418 481 36,000  Level Kansas City Center
Sat 09:09:03 PM 37.7328 -89.6967 262° West 418 481 36,000  Level Kansas City Center
Sat 09:10:04 PM 37.7172 -89.8417 262° West 418 481 36,000  Level Kansas City Center
Sat 09:11:05 PM 37.7014 -89.9856 262° West 418 481 36,000  Level Kansas City Center
Sat 09:12:08 PM 37.6817 -90.1589 262° West 417 480 36,000  Level Kansas City Center
Sat 09:13:08 PM 37.6667 -90.3039 263° West 417 480 36,000  Level Kansas City Center
Sat 09:14:09 PM 37.6542 -90.4481 264° West 416 479 36,000  Level Kansas City Center
Sat 09:15:13 PM 37.6406 -90.5936 263° West 416 479 36,000  Level Kansas City Center
Sat 09:16:14 PM 37.6258 -90.7400 263° West 416 479 36,000  Level Kansas City Center
Sat 09:17:14 PM 37.6117 -90.9011 264° West 417 480 36,000  Level Kansas City Center
Sat 09:18:15 PM 37.5972 -91.0461 263° West 417 480 36,000  Level Kansas City Center
Sat 09:19:18 PM 37.5811 -91.1875 262° West 413 475 36,000  Level Kansas City Center
Sat 09:20:19 PM 37.5511 -91.3236 255° West 406 467 36,000  Level Kansas City Center
Sat 09:21:21 PM 37.5219 -91.4600 255° West 405 466 36,000  Level Kansas City Center
Sat 09:22:20 PM 37.4944 -91.5961 256° West 402 463 36,000  Level Kansas City Center
Sat 09:23:23 PM 37.4658 -91.7314 255° West 401 461 36,000  Level Kansas City Center
Sat 09:24:24 PM 37.4358 -91.8692 255° West 401 461 36,000  Level Kansas City Center
Sat 09:25:25 PM 37.4053 -92.0136 255° West 416 479 36,000  Level Kansas City Center
Sat 09:26:26 PM 37.3742 -92.1586 255° West 420 483 36,000  Level Kansas City Center
Sat 09:27:29 PM 37.3428 -92.3006 254° West 420 483 36,000  Level Kansas City Center
Sat 09:28:30 PM 37.3131 -92.4422 255° West 420 483 36,000  Level Kansas City Center
Sat 09:29:31 PM 37.2817 -92.5833 254° West 420 483 36,000  Level Kansas City Center
Sat 09:30:32 PM 37.2433 -92.7533 254° West 420 483 36,000  Level Kansas City Center
Sat 09:31:32 PM 37.2119 -92.8925 254° West 419 482 36,000  Level Kansas City Center
Sat 09:32:34 PM 37.1819 -93.0269 254° West 407 468 36,000  Level Kansas City Center
Sat 09:33:35 PM 37.1517 -93.1636 255° West 404 465 36,000  Level Kansas City Center
Sat 09:34:36 PM 37.1189 -93.3036 254° West 412 474 36,000  Level Kansas City Center
Sat 09:35:37 PM 37.0864 -93.4450 254° West 418 481 36,000  Level Kansas City Center
Sat 09:36:41 PM 37.0564 -93.5842 255° West 418 481 36,000  Level Kansas City Center
Sat 09:37:41 PM 37.0256 -93.7211 254° West 411 473 36,000  Level Kansas City Center
Sat 09:38:42 PM 36.9903 -93.8653 253° West 409 471 36,000  Level Kansas City Center
Sat 09:39:43 PM 36.9575 -94.0058 254° West 414 476 36,000 -195 Level Kansas City Center
Sat 09:40:45 PM 36.9253 -94.1447 254° West 419 482 35,600 -1,366 Descending Kansas City Center
Sat 09:41:46 PM 36.8928 -94.2811 253° West 414 476 33,200 -2,565 Descending Kansas City Center
Sat 09:42:49 PM 36.8592 -94.4203 253° West 414 476 30,300 -2,705 Descending Kansas City Center
Sat 09:43:48 PM 36.8250 -94.5664 254° West 429 494 27,700 -2,705 Descending Kansas City Center
Sat 09:44:51 PM 36.7839 -94.7372 253° West 432 497 24,800 -2,613 Descending Kansas City Center
Sat 09:45:52 PM 36.7497 -94.8792 253° West 431 496 22,300 -2,514 Descending Kansas City Center
Sat 09:46:05 PM 36.7419 -94.9128 254° West 428 493 21,700 -2,757 Descending Kansas City Center
Sat 09:46:29 PM 36.7281 -94.9644 251° West 421 484 20,600 -2,625 Descending Kansas City Center
Sat 09:46:53 PM 36.7158 -95.0122 252° West 413 475 19,600 -2,644 Descending Kansas City Center
Sat 09:47:28 PM 36.6958 -95.0942 253° West 393 452 18,000 -2,476 Descending Kansas City Center
Sat 09:47:56 PM 36.6844 -95.1433 254° West 401 461 17,000 -2,656 Descending Kansas City Center
Sat 09:48:29 PM 36.6553 -95.2247 246° West 403 464 15,300 -2,700 Descending Kansas City Center
Sat 09:48:56 PM 36.6336 -95.2664 237° Southwest 408 470 14,300 -2,300 Descending Kansas City Center
Sat 09:49:29 PM 36.5961 -95.3372 237° Southwest 395 455 13,000 -2,000 Descending Kansas City Center
Sat 09:49:56 PM 36.5739 -95.3794 237° Southwest 398 458 12,300 -1,935 Descending Kansas City Center
Sat 09:50:31 PM 36.5347 -95.4497 235° Southwest 389 448 11,000 -1,645 Descending Kansas City Center
Sat 09:50:58 PM 36.5169 -95.4858 239° Southwest 382 440 10,600 -982 Descending Kansas City Center
Sat 09:51:26 PM 36.4881 -95.5392 236° Southwest 322 371 10,100 -1,180 Descending Kansas City Center
Sat 09:51:59 PM 36.4608 -95.5900 236° Southwest 314 361 9,400 -1,500 Descending Kansas City Center
Sat 09:52:26 PM 36.4431 -95.6233 236° Southwest 273 314 8,600 -2,066 Descending Kansas City Center
Sat 09:53:00 PM 36.4192 -95.6683 237° Southwest 282 325 7,300 -2,507 Descending Kansas City Center
Sat 09:53:33 PM 36.3961 -95.7100 236° Southwest 259 298 5,800 -2,438 Descending Kansas City Center
Sat 09:54:04 PM 36.3789 -95.7417 236° Southwest 266 306 4,700 -2,066 Descending Kansas City Center
Sat 09:54:34 PM 36.3583 -95.7825 238° Southwest 251 289 3,700 -1,672 Descending Kansas City Center
Sat 09:55:05 PM 36.3417 -95.8122 235° Southwest 251 289 3,000 -1,180 Descending Kansas City Center
Sat 09:55:35 PM 36.3222 -95.8519 239° Southwest 234 269 2,500 -700 Descending Kansas City Center
Sat 09:56:05 PM 36.3067 -95.8719 226° Southwest 228 262 2,300 -590 Descending Kansas City Center
Sat 09:56:36 PM 36.2844 -95.8775 191° South 136 157 1,900 -689 Descending Kansas City Center
Sat 09:57:06 PM 36.2697 -95.8786 183° South 160 184 1,600 -590 Descending Kansas City Center
Sat 09:57:37 PM 36.2492 -95.8797 182° South 115 132 1,300 -590 Descending Kansas City Center
Sat 09:58:07 PM 36.2344 -95.8803 182° South 139 160 1,000 -600 Descending Kansas City Center

Login

Don't have an account? Register now (free) for customized features, flight alerts, and more!